Time;durP1;ratioP1;P1;durP2;ratioP2;P2;SDS_P1;SDS_P2;PMS_P1;PMS_P2;Temp;Humidity;BMP_temperature;BMP_pressure;BME280_temperature;BME280_humidity;BME280_pressure;Samples;Min_cycle;Max_cycle;Signal;HPM_P1;HPM_P2
2023/05/23 00:02:06;;;;;;;21.02;11.10;;;;;;;-142.57;100.00;115900.28;4922382;29;20521;-84
2023/05/23 00:04:32;;;;;;;20.45;11.90;;;;;;;-142.57;100.00;115900.28;4923970;29;20032;-86
2023/05/23 00:06:58;;;;;;;19.58;10.75;;;;;;;-142.57;100.00;115900.28;4925590;29;20521;-87
2023/05/23 00:09:23;;;;;;;17.73;11.60;;;;;;;-142.57;100.00;115900.28;4905368;29;20037;-86
2023/05/23 00:11:49;;;;;;;19.50;11.05;;;;;;;-142.57;100.00;115900.28;4923171;29;20036;-86
2023/05/23 00:14:14;;;;;;;18.50;11.07;;;;;;;-142.57;100.00;115900.28;4907589;29;20483;-88
2023/05/23 00:16:42;;;;;;;18.88;11.75;;;;;;;-142.57;100.00;115900.28;4925480;29;20047;-86
2023/05/23 00:19:09;;;;;;;20.38;11.93;;;;;;;-142.57;100.00;115900.28;4926235;29;20040;-84
2023/05/23 00:21:35;;;;;;;21.85;11.38;;;;;;;-142.57;100.00;115900.28;4927005;29;20055;-85
2023/05/23 00:24:03;;;;;;;18.42;11.27;;;;;;;-142.57;100.00;115900.28;4939205;29;20036;-85
2023/05/23 00:26:29;;;;;;;20.52;11.20;;;;;;;-142.57;100.00;115900.28;4933008;29;20533;-86
2023/05/23 00:28:56;;;;;;;17.35;10.27;;;;;;;-142.57;100.00;115900.28;4922869;29;20201;-84
2023/05/23 00:31:22;;;;;;;14.07;10.07;;;;;;;-142.57;100.00;115900.28;4901769;29;20062;-86
2023/05/23 00:33:47;;;;;;;15.70;10.18;;;;;;;-142.57;100.00;115900.28;4918445;29;20498;-86
2023/05/23 00:36:13;;;;;;;17.38;10.07;;;;;;;-142.57;100.00;115900.28;4917878;29;20062;-84
2023/05/23 00:38:39;;;;;;;22.65;10.57;;;;;;;-142.57;100.00;115900.28;4918302;29;20036;-85
2023/05/23 00:41:05;;;;;;;26.60;10.07;;;;;;;-142.57;100.00;115900.28;4918167;29;20060;-86
2023/05/23 00:43:31;;;;;;;16.30;10.52;;;;;;;-142.57;100.00;115900.28;4918252;29;20068;-84
2023/05/23 00:45:57;;;;;;;20.05;9.95;;;;;;;-142.57;100.00;115900.28;4916879;29;20039;-85
2023/05/23 00:48:26;;;;;;;14.93;10.20;;;;;;;-142.57;100.00;115900.28;4918703;29;20039;-87
2023/05/23 00:50:53;;;;;;;13.75;10.07;;;;;;;-142.57;100.00;115900.28;4901207;29;20071;-86
2023/05/23 00:53:19;;;;;;;16.38;10.57;;;;;;;-142.57;100.00;115900.28;4918277;29;20032;-85
2023/05/23 00:55:44;;;;;;;22.42;11.20;;;;;;;-142.57;100.00;115900.28;4901085;29;20387;-86
2023/05/23 00:58:11;;;;;;;22.13;11.25;;;;;;;-142.57;100.00;115900.28;4918012;29;20043;-83
2023/05/23 01:00:37;;;;;;;18.13;11.23;;;;;;;-142.57;100.00;115900.28;4900375;29;20043;-85
2023/05/23 01:03:04;;;;;;;24.70;12.20;;;;;;;-142.57;100.00;115900.28;4917736;29;20394;-85
2023/05/23 01:05:30;;;;;;;21.38;11.82;;;;;;;-142.57;100.00;115900.28;4900932;29;20047;-86
2023/05/23 01:07:56;;;;;;;17.55;11.90;;;;;;;-142.57;100.00;115900.28;4900684;29;20048;-85
2023/05/23 01:10:29;;;;;;;18.27;11.55;;;;;;;-142.57;100.00;115900.28;4917472;29;20072;-86
2023/05/23 01:13:20;;;;;;;24.10;11.38;;;;;;;-142.57;100.00;115900.28;4884800;29;20116;-86
2023/05/23 01:16:04;;;;;;;18.60;11.68;;;;;;;-142.57;100.00;115900.28;4917859;29;20230;-86
2023/05/23 01:18:57;;;;;;;20.33;11.95;;;;;;;-142.57;100.00;115900.28;4902925;29;20119;-86
2023/05/23 01:21:25;;;;;;;19.83;12.50;;;;;;;-142.57;100.00;115900.28;4935535;29;20051;-87
2023/05/23 01:24:16;;;;;;;19.02;11.52;;;;;;;-142.57;100.00;115900.28;4918863;29;20032;-85
2023/05/23 01:27:04;;;;;;;28.85;11.80;;;;;;;-142.57;100.00;115900.28;4918783;29;20073;-86
2023/05/23 01:29:45;;;;;;;28.02;13.25;;;;;;;-142.57;100.00;115900.28;4935517;29;20035;-87
2023/05/23 01:32:13;;;;;;;16.02;11.07;;;;;;;-142.57;100.00;115900.28;4938746;29;20044;-86
2023/05/23 01:34:40;;;;;;;16.13;11.18;;;;;;;-142.57;100.00;115900.28;4939995;29;20409;-86
2023/05/23 01:37:13;;;;;;;19.02;11.82;;;;;;;-142.57;100.00;115900.28;4939701;29;20050;-86
2023/05/23 01:39:39;;;;;;;17.60;11.75;;;;;;;-142.57;100.00;115900.28;4939630;29;20095;-86
2023/05/23 01:42:05;;;;;;;17.92;11.20;;;;;;;-142.57;100.00;115900.28;4939565;29;20048;-85
2023/05/23 01:44:33;;;;;;;20.50;10.95;;;;;;;-142.57;100.00;115900.28;4938900;29;20036;-85
2023/05/23 01:46:59;;;;;;;19.00;11.45;;;;;;;-142.57;100.00;115900.28;4939071;29;20035;-85
2023/05/23 01:49:25;;;;;;;20.17;10.65;;;;;;;-142.57;100.00;115900.28;4938999;29;20079;-85
2023/05/23 01:51:52;;;;;;;22.95;12.13;;;;;;;-142.57;100.00;115900.28;4921829;29;20083;-85
2023/05/23 01:54:18;;;;;;;18.05;10.35;;;;;;;-142.57;100.00;115900.28;4921855;29;20111;-86
2023/05/23 01:56:44;;;;;;;20.77;11.40;;;;;;;-142.57;100.00;115900.28;4906148;29;20039;-85
2023/05/23 01:59:11;;;;;;;21.33;11.52;;;;;;;-142.57;100.00;115900.28;4921934;29;20027;-86
2023/05/23 02:01:37;;;;;;;22.52;12.35;;;;;;;-142.57;100.00;115900.28;4922195;29;20030;-85
2023/05/23 02:04:03;;;;;;;19.33;11.88;;;;;;;-142.57;100.00;115900.28;4921833;29;20493;-86
2023/05/23 02:06:30;;;;;;;20.70;12.27;;;;;;;-142.57;100.00;115900.28;4921957;29;20032;-85
2023/05/23 02:08:56;;;;;;;19.23;12.15;;;;;;;-142.57;100.00;115900.28;4939003;29;20047;-86
2023/05/23 02:11:22;;;;;;;24.23;12.05;;;;;;;-142.57;100.00;115900.28;4921366;29;20088;-86
2023/05/23 02:13:49;;;;;;;19.10;12.13;;;;;;;-142.57;100.00;115900.28;4921780;29;20036;-86
2023/05/23 02:16:14;;;;;;;28.83;12.23;;;;;;;-142.57;100.00;115900.28;4921432;29;20038;-86
2023/05/23 02:18:40;;;;;;;17.42;11.93;;;;;;;-142.57;100.00;115900.28;4921545;29;20028;-86
2023/05/23 02:21:05;;;;;;;18.98;10.13;;;;;;;-142.57;100.00;115900.28;4938890;29;20107;-86
2023/05/23 02:23:31;;;;;;;16.80;11.45;;;;;;;-142.57;100.00;115900.28;4921464;29;20133;-86
2023/05/23 02:25:57;;;;;;;21.33;12.15;;;;;;;-142.57;100.00;115900.28;4921249;29;20114;-86
2023/05/23 02:28:22;;;;;;;18.15;12.23;;;;;;;-142.57;100.00;115900.28;4938872;29;20032;-84
2023/05/23 02:30:48;;;;;;;27.75;12.95;;;;;;;-142.57;100.00;115900.28;4921446;29;20036;-85
2023/05/23 02:33:14;;;;;;;20.60;12.65;;;;;;;-142.57;100.00;115900.28;4921676;29;20044;-84
2023/05/23 02:35:40;;;;;;;20.58;11.98;;;;;;;-142.57;100.00;115900.28;4920095;29;20036;-87
2023/05/23 02:38:05;;;;;;;16.95;12.23;;;;;;;-142.57;100.00;115900.28;4919987;29;20075;-86
2023/05/23 02:40:31;;;;;;;20.02;10.75;;;;;;;-142.57;100.00;115900.28;4919248;29;20044;-85
2023/05/23 02:42:56;;;;;;;20.77;12.68;;;;;;;-142.57;100.00;115900.28;4918209;29;20056;-86
2023/05/23 02:45:24;;;;;;;20.45;12.73;;;;;;;-142.57;100.00;115900.28;4902378;29;20389;-87
2023/05/23 02:47:50;;;;;;;22.90;12.82;;;;;;;-142.57;100.00;115900.28;4919341;29;20036;-87
2023/05/23 02:50:15;;;;;;;19.98;12.48;;;;;;;-142.57;100.00;115900.28;4901958;29;20044;-87
2023/05/23 02:52:41;;;;;;;16.63;11.43;;;;;;;-142.57;100.00;115900.28;4901929;29;20083;-87
2023/05/23 02:55:08;;;;;;;21.50;12.10;;;;;;;-142.57;100.00;115900.28;4902067;29;20029;-86
2023/05/23 02:57:39;;;;;;;19.88;12.43;;;;;;;-142.57;100.00;115900.28;4901868;29;20056;-85
2023/05/23 03:00:05;;;;;;;21.05;12.38;;;;;;;-142.57;100.00;115900.28;4919278;29;20090;-85
2023/05/23 03:02:32;;;;;;;18.50;12.27;;;;;;;-142.57;100.00;115900.28;4902002;29;20057;-87
2023/05/23 03:04:57;;;;;;;23.05;13.05;;;;;;;-142.57;100.00;115900.28;4919532;29;20578;-86
2023/05/23 03:07:23;;;;;;;18.52;12.65;;;;;;;-142.57;100.00;115900.28;4919306;29;20036;-86
2023/05/23 03:09:49;;;;;;;17.48;12.93;;;;;;;-142.57;100.00;115900.28;4919150;29;20071;-86
2023/05/23 03:12:35;;;;;;;20.67;13.00;;;;;;;-142.57;100.00;115900.28;4903109;29;20144;-86
2023/05/23 03:15:02;;;;;;;22.70;13.18;;;;;;;-142.57;100.00;115900.28;4920811;29;20496;-85
2023/05/23 03:17:27;;;;;;;22.33;13.20;;;;;;;-142.57;100.00;115900.28;4921913;29;20032;-86
2023/05/23 03:19:55;;;;;;;25.38;12.70;;;;;;;-142.57;100.00;115900.28;4940372;29;20056;-84
2023/05/23 03:22:21;;;;;;;21.13;12.73;;;;;;;-142.57;100.00;115900.28;4931689;29;20044;-85
2023/05/23 03:24:46;;;;;;;19.75;13.35;;;;;;;-142.57;100.00;115900.28;4920714;29;20122;-85
2023/05/23 03:27:12;;;;;;;16.05;12.07;;;;;;;-142.57;100.00;115900.28;4905623;29;20040;-86
2023/05/23 03:29:37;;;;;;;22.88;13.68;;;;;;;-142.57;100.00;115900.28;4919487;29;20028;-86
2023/05/23 03:32:03;;;;;;;19.42;12.38;;;;;;;-142.57;100.00;115900.28;4918825;29;20119;-85
2023/05/23 03:34:29;;;;;;;19.27;13.05;;;;;;;-142.57;100.00;115900.28;4918682;29;20407;-85
2023/05/23 03:36:54;;;;;;;27.42;13.27;;;;;;;-142.57;100.00;115900.28;4918909;29;20072;-87
2023/05/23 03:39:20;;;;;;;22.52;13.50;;;;;;;-142.57;100.00;115900.28;4918585;29;20066;-84
2023/05/23 03:41:46;;;;;;;18.80;13.07;;;;;;;-142.57;100.00;115900.28;4920380;29;20059;-85
2023/05/23 03:44:14;;;;;;;22.52;13.50;;;;;;;-142.57;100.00;115900.28;4903363;29;20047;-85
2023/05/23 03:46:40;;;;;;;28.70;13.82;;;;;;;-142.57;100.00;115900.28;4918970;29;20050;-85
2023/05/23 03:49:06;;;;;;;22.73;13.18;;;;;;;-142.57;100.00;115900.28;4902288;29;20495;-86
2023/05/23 03:51:32;;;;;;;25.80;14.40;;;;;;;-142.57;100.00;115900.28;4902085;29;20125;-86
2023/05/23 03:53:58;;;;;;;23.35;13.32;;;;;;;-142.57;100.00;115900.28;4901618;29;20032;-85
2023/05/23 03:56:26;;;;;;;20.05;13.40;;;;;;;-142.57;100.00;115900.28;4919133;29;20032;-86
2023/05/23 03:58:51;;;;;;;23.48;13.48;;;;;;;-142.57;100.00;115900.28;4920188;29;20036;-87
2023/05/23 04:01:17;;;;;;;19.70;13.60;;;;;;;-142.57;100.00;115900.28;4901989;29;20028;-86
2023/05/23 04:03:45;;;;;;;24.83;14.52;;;;;;;-142.57;100.00;115900.28;4902426;29;20024;-88
2023/05/23 04:06:10;;;;;;;22.52;14.13;;;;;;;-142.57;100.00;115900.28;4901429;29;20044;-85
2023/05/23 04:08:40;;;;;;;25.90;14.52;;;;;;;-142.57;100.00;115900.28;4901928;29;20047;-86
2023/05/23 04:11:06;;;;;;;19.85;13.63;;;;;;;-142.57;100.00;115900.28;4901269;29;20044;-86
2023/05/23 04:13:34;;;;;;;22.27;13.35;;;;;;;-142.57;100.00;115900.28;4914460;29;20043;-85
2023/05/23 04:16:04;;;;;;;19.55;12.88;;;;;;;-142.57;100.00;115900.28;4912022;29;20445;-85
2023/05/23 04:18:37;;;;;;;23.85;13.10;;;;;;;-142.57;100.00;115900.28;4899870;29;20063;-87
2023/05/23 04:21:04;;;;;;;24.02;13.57;;;;;;;-142.57;100.00;115900.28;4917258;29;20040;-84
2023/05/23 04:23:30;;;;;;;27.88;12.73;;;;;;;-142.57;100.00;115900.28;4914791;29;20119;-85
2023/05/23 04:25:56;;;;;;;18.83;12.90;;;;;;;-142.57;100.00;115900.28;4907910;29;20482;-84
2023/05/23 04:28:30;;;;;;;20.70;12.82;;;;;;;-142.57;100.00;115900.28;4927138;29;20058;-84
2023/05/23 04:30:57;;;;;;;19.10;13.73;;;;;;;-142.57;100.00;115900.28;4904887;29;20469;-84
2023/05/23 04:33:27;;;;;;;22.98;13.30;;;;;;;-142.57;100.00;115900.28;4906932;29;20036;-83
2023/05/23 04:35:53;;;;;;;30.15;14.50;;;;;;;-142.57;100.00;115900.28;4904976;29;20403;-87
2023/05/23 04:38:20;;;;;;;28.40;13.88;;;;;;;-142.57;100.00;115900.28;4902132;29;20032;-88
2023/05/23 04:40:52;;;;;;;23.15;13.85;;;;;;;-142.57;100.00;115900.28;4903475;29;20051;-88
2023/05/23 04:43:43;;;;;;;28.15;13.68;;;;;;;-142.57;100.00;115900.28;4942500;23;20083;-85
2023/05/23 04:46:27;;;;;;;21.60;13.52;;;;;;;-142.57;100.00;115900.28;4889770;29;20091;-87
2023/05/23 04:49:11;;;;;;;22.13;13.48;;;;;;;-142.57;100.00;115900.28;4885831;29;20044;-84
2023/05/23 04:51:38;;;;;;;22.60;12.90;;;;;;;-142.57;100.00;115900.28;4886559;29;20072;-84
2023/05/23 04:54:27;;;;;;;19.65;13.43;;;;;;;-142.57;100.00;115900.28;4884329;29;20096;-84
2023/05/23 04:56:56;;;;;;;24.48;12.63;;;;;;;-142.57;100.00;115900.28;4868620;29;20052;-82
2023/05/23 04:59:23;;;;;;;17.20;11.98;;;;;;;-142.57;100.00;115900.28;4870032;29;20037;-83
2023/05/23 05:01:49;;;;;;;19.17;13.00;;;;;;;-142.57;100.00;115900.28;4887016;29;20056;-85
2023/05/23 05:04:15;;;;;;;18.02;12.23;;;;;;;-142.57;100.00;115900.28;4871789;29;20108;-84
2023/05/23 05:06:40;;;;;;;18.90;12.52;;;;;;;-142.57;100.00;115900.28;4868951;29;20081;-86
2023/05/23 05:09:07;;;;;;;20.55;12.48;;;;;;;-142.57;100.00;115900.28;4871819;29;20029;-85
2023/05/23 05:11:34;;;;;;;16.27;12.65;;;;;;;-142.57;100.00;115900.28;4877037;29;20036;-84
2023/05/23 05:13:59;;;;;;;21.35;13.27;;;;;;;-142.57;100.00;115900.28;4872773;29;20053;-85
2023/05/23 05:16:25;;;;;;;19.58;12.32;;;;;;;-142.57;100.00;115900.28;4855171;29;20359;-83
2023/05/23 05:18:51;;;;;;;21.20;12.32;;;;;;;-142.57;100.00;115900.28;4871257;29;20082;-88
2023/05/23 05:21:18;;;;;;;27.92;14.70;;;;;;;-142.57;100.00;115900.28;4872394;29;20128;-87
2023/05/23 05:23:44;;;;;;;19.63;15.32;;;;;;;-142.57;100.00;115900.28;4889418;29;20108;-87
2023/05/23 05:26:13;;;;;;;23.38;15.43;;;;;;;-142.57;100.00;115900.28;4890345;29;20058;-86
2023/05/23 05:28:40;;;;;;;29.98;14.60;;;;;;;-142.57;100.00;115900.28;4872249;29;20124;-87
2023/05/23 05:31:05;;;;;;;20.73;15.43;;;;;;;-142.57;100.00;115900.28;4853206;29;20076;-85
2023/05/23 05:34:12;;;;;;;20.83;16.25;;;;;;;-142.57;100.00;115900.28;4885521;29;20041;-88
2023/05/23 05:36:46;;;;;;;26.40;16.52;;;;;;;-142.57;100.00;115900.28;4874553;29;20104;-85
2023/05/23 05:39:15;;;;;;;26.77;17.30;;;;;;;-142.57;100.00;115900.28;4895720;29;20061;-86
2023/05/23 05:41:41;;;;;;;23.42;17.13;;;;;;;-142.57;100.00;115900.28;4877346;29;20043;-86
2023/05/23 05:44:07;;;;;;;22.85;16.65;;;;;;;-142.57;100.00;115900.28;4892737;29;20048;-86
2023/05/23 05:46:36;;;;;;;23.85;16.17;;;;;;;-142.57;100.00;115900.28;4894361;29;20029;-84
2023/05/23 05:49:01;;;;;;;33.70;17.45;;;;;;;-142.57;100.00;115900.28;4893311;29;20173;-86
2023/05/23 05:51:28;;;;;;;29.30;16.58;;;;;;;-142.57;100.00;115900.28;4913336;29;20108;-85
2023/05/23 05:54:12;;;;;;;28.92;16.77;;;;;;;-142.57;100.00;115900.28;4896580;29;20067;-88
2023/05/23 05:56:38;;;;;;;22.42;16.27;;;;;;;-142.57;97.74;115900.28;4891852;29;20041;-82
2023/05/23 05:59:04;;;;;;;22.88;16.35;;;;;;;-142.57;94.49;115900.28;4909218;29;20061;-81
2023/05/23 06:01:30;;;;;;;23.23;16.33;;;;;;;-142.57;93.21;115900.28;4895590;29;20032;-85
2023/05/23 06:03:58;;;;;;;26.63;15.82;;;;;;;-142.57;89.12;115900.28;4878894;29;20053;-82
2023/05/23 06:06:24;;;;;;;25.08;15.85;;;;;;;-142.57;88.49;115900.28;4911681;29;20052;-81
2023/05/23 06:08:49;;;;;;;27.13;15.98;;;;;;;-142.57;87.30;115900.28;4901633;29;20081;-83
2023/05/23 06:11:16;;;;;;;25.00;15.35;;;;;;;-142.57;81.89;115900.28;4903428;29;20041;-81
2023/05/23 06:13:42;;;;;;;29.33;14.63;;;;;;;-142.57;77.54;115900.28;4903805;29;20040;-85
2023/05/23 06:16:07;;;;;;;26.63;13.55;;;;;;;-142.57;70.81;115900.28;4914508;29;20012;-83
2023/05/23 06:18:33;;;;;;;24.80;15.15;;;;;;;-142.57;67.06;115900.28;4902189;29;20040;-83
2023/05/23 06:20:59;;;;;;;29.35;13.18;;;;;;;-142.57;66.02;115900.28;4914407;29;20079;-82
2023/05/23 06:23:46;;;;;;;21.73;13.63;;;;;;;-142.57;65.29;115900.28;4912579;29;20036;-82
2023/05/23 06:26:11;;;;;;;23.13;14.02;;;;;;;-142.57;66.98;115900.28;4912791;29;20040;-82
2023/05/23 06:28:40;;;;;;;23.77;14.20;;;;;;;-142.57;68.68;115900.28;4906238;29;20056;-83
2023/05/23 06:31:08;;;;;;;27.25;13.40;;;;;;;-142.57;60.90;115900.28;4925499;29;20031;-84
2023/05/23 06:33:59;;;;;;;34.78;12.95;;;;;;;-142.57;59.58;115900.28;4909053;29;20037;-84
2023/05/23 06:36:24;;;;;;;18.60;12.07;;;;;;;-142.57;55.86;115900.28;4909299;29;20044;-85
2023/05/23 06:38:50;;;;;;;26.50;12.68;;;;;;;-142.57;57.47;115900.28;4901773;29;20043;-82
2023/05/23 06:41:15;;;;;;;24.30;12.88;;;;;;;-142.57;56.94;115900.28;4925145;29;20057;-84
2023/05/23 06:43:41;;;;;;;20.88;13.00;;;;;;;-142.57;59.18;115900.28;4924648;29;20045;-83
2023/05/23 06:46:33;;;;;;;18.20;13.07;;;;;;;-142.57;62.11;115900.28;4914645;29;20025;-83
2023/05/23 06:49:00;;;;;;;22.48;13.15;;;;;;;-142.57;63.62;115900.28;4908492;29;20092;-85
2023/05/23 06:51:25;;;;;;;19.52;12.95;;;;;;;-142.57;63.20;115900.28;4893184;29;20492;-83
2023/05/23 06:53:51;;;;;;;21.02;12.23;;;;;;;-142.57;63.94;115900.28;4907703;29;20029;-83
2023/05/23 06:56:17;;;;;;;21.73;12.00;;;;;;;-142.57;61.16;115900.28;4906050;29;20052;-88
2023/05/23 06:58:51;;;;;;;20.90;12.00;;;;;;;-142.57;62.95;115900.28;4907414;29;20047;-82
2023/05/23 07:01:17;;;;;;;20.73;11.90;;;;;;;-142.57;65.68;115900.28;4906685;29;20033;-86
2023/05/23 07:03:46;;;;;;;18.95;11.70;;;;;;;-142.57;66.77;115900.28;4907767;29;20104;-85
2023/05/23 07:06:12;;;;;;;24.80;12.13;;;;;;;-142.57;64.59;115900.28;4907870;29;20040;-84
2023/05/23 07:08:39;;;;;;;20.77;12.65;;;;;;;-142.57;64.85;115900.28;4923997;29;20068;-84
2023/05/23 07:11:05;;;;;;;17.65;11.07;;;;;;;-142.57;62.66;115900.28;4892356;29;20360;-84
2023/05/23 07:13:40;;;;;;;17.67;10.32;;;;;;;-142.57;62.56;115900.28;4907881;29;20061;-84
2023/05/23 07:16:06;;;;;;;22.33;11.45;;;;;;;-142.57;62.90;115900.28;4892773;29;20065;-85
2023/05/23 07:18:34;;;;;;;14.02;10.55;;;;;;;-142.57;60.36;115900.28;4893084;29;20051;-84
2023/05/23 07:21:04;;;;;;;15.30;11.15;;;;;;;-142.57;60.59;115900.28;4907402;29;20021;-86
2023/05/23 07:23:33;;;;;;;15.88;10.98;;;;;;;-142.57;58.79;115900.28;4903612;29;20098;-83
2023/05/23 07:26:00;;;;;;;19.92;10.77;;;;;;;-142.57;60.78;115900.28;4906428;29;20037;-84
2023/05/23 07:28:27;;;;;;;22.13;11.23;;;;;;;-142.57;57.73;115900.28;4904417;29;20033;-84
2023/05/23 07:30:56;;;;;;;20.33;10.30;;;;;;;-142.57;55.43;115900.28;4905240;29;20044;-85
2023/05/23 07:33:23;;;;;;;17.88;9.93;;;;;;;-142.57;53.48;115900.28;4894178;29;20498;-85
2023/05/23 07:35:51;;;;;;;17.45;10.50;;;;;;;-142.57;55.53;115900.28;4891064;29;20024;-85
2023/05/23 07:38:16;;;;;;;23.55;10.13;;;;;;;-142.57;54.38;115900.28;4906330;29;20127;-86
2023/05/23 07:40:42;;;;;;;15.85;10.02;;;;;;;-142.57;52.41;115900.28;4889294;29;20040;-85
2023/05/23 07:43:09;;;;;;;18.98;9.32;;;;;;;-142.57;50.77;115900.28;4889452;29;20080;-87
2023/05/23 07:45:34;;;;;;;12.57;9.77;;;;;;;-142.57;50.72;115900.28;4889912;29;20178;-84
2023/05/23 07:48:01;;;;;;;16.33;9.93;;;;;;;-142.57;52.50;115900.28;4889911;29;20036;-83
2023/05/23 07:50:27;;;;;;;18.67;10.93;;;;;;;-142.57;53.83;115900.28;4889713;29;20582;-82
2023/05/23 07:52:53;;;;;;;21.70;10.73;;;;;;;-142.57;55.38;115900.28;4889282;29;20041;-83
2023/05/23 07:55:28;;;;;;;20.85;11.30;;;;;;;-142.57;55.33;115900.28;4890133;29;20037;-84
2023/05/23 07:57:55;;;;;;;18.90;11.35;;;;;;;-142.57;53.57;115900.28;4906469;29;20037;-83
2023/05/23 08:00:23;;;;;;;22.88;11.02;;;;;;;-142.57;52.46;115900.28;4889469;29;20048;-86
2023/05/23 08:02:54;;;;;;;16.95;10.38;;;;;;;-142.57;50.48;115900.28;4889077;29;20024;-82
2023/05/23 08:05:26;;;;;;;21.47;10.00;;;;;;;-142.57;47.30;115900.28;4874892;29;20082;-83
2023/05/23 08:07:55;;;;;;;14.07;9.98;;;;;;;-142.57;47.07;115900.28;4889246;29;20040;-84
2023/05/23 08:10:27;;;;;;;19.08;10.48;;;;;;;-142.57;47.22;115900.28;4888757;29;20092;-83
2023/05/23 08:12:55;;;;;;;12.65;9.38;;;;;;;-142.57;44.55;115900.28;4887422;29;20047;-83
2023/05/23 08:15:22;;;;;;;12.27;9.38;;;;;;;-142.57;46.23;115900.28;4872751;29;20040;-84
2023/05/23 08:17:55;;;;;;;14.30;9.50;;;;;;;-142.57;43.57;115900.28;4888051;29;20127;-84
2023/05/23 08:20:21;;;;;;;18.60;10.05;;;;;;;-142.57;43.39;115900.28;4888541;29;20040;-83
2023/05/23 08:22:47;;;;;;;16.40;9.18;;;;;;;-142.57;43.73;115900.28;4890774;29;20402;-83
2023/05/23 08:25:13;;;;;;;12.20;8.80;;;;;;;-142.57;43.65;115900.28;4889243;29;20039;-84
2023/05/23 08:27:39;;;;;;;15.82;9.75;;;;;;;-142.57;44.61;115900.28;4887499;29;20044;-83
2023/05/23 08:30:21;;;;;;;18.95;9.27;;;;;;;-142.57;43.28;115900.28;4888641;29;20040;-82
2023/05/23 08:32:47;;;;;;;11.85;8.50;;;;;;;-142.57;39.60;115900.28;4872717;29;20029;-83
2023/05/23 08:35:13;;;;;;;14.93;8.65;;;;;;;-142.57;39.62;115900.28;4882237;29;20040;-82
2023/05/23 08:37:40;;;;;;;17.88;9.13;;;;;;;-142.57;40.51;115900.28;4899745;29;20036;-83
2023/05/23 08:40:10;;;;;;;15.35;8.70;;;;;;;-142.57;38.73;115900.28;4913341;29;20033;-84
2023/05/23 08:42:43;;;;;;;19.58;9.10;;;;;;;-142.57;40.35;115900.28;4891283;29;20048;-83
2023/05/23 08:45:09;;;;;;;17.25;8.30;;;;;;;-142.57;43.05;115900.28;4870309;29;20041;-82
2023/05/23 08:47:41;;;;;;;12.43;8.32;;;;;;;-142.57;40.43;115900.28;4870772;29;20049;-81
2023/05/23 08:50:09;;;;;;;19.95;9.13;;;;;;;-142.57;41.86;115900.28;4885593;29;20086;-82
2023/05/23 08:52:41;;;;;;;13.90;9.15;;;;;;;-142.57;41.66;115900.28;4902337;29;20044;-85
2023/05/23 08:55:11;;;;;;;22.92;9.60;;;;;;;-142.57;40.65;115900.28;4885839;29;20076;-82
2023/05/23 08:57:38;;;;;;;14.15;8.63;;;;;;;-142.57;40.39;115900.28;4885745;29;20041;-82
2023/05/23 09:00:21;;;;;;;12.85;8.35;;;;;;;-142.57;40.81;115900.28;4886062;29;20168;-84
2023/05/23 09:02:46;;;;;;;15.18;8.98;;;;;;;-142.57;40.56;115900.28;4886059;29;20127;-83
2023/05/23 09:05:28;;;;;;;12.68;8.07;;;;;;;-142.57;40.51;115900.28;4892135;29;20043;-81
2023/05/23 09:07:55;;;;;;;11.85;8.07;;;;;;;-142.57;40.71;115900.28;4896514;29;20029;-80
2023/05/23 09:10:22;;;;;;;15.88;8.77;;;;;;;-142.57;39.88;115900.28;4875078;29;20048;-83
2023/05/23 09:12:48;;;;;;;16.52;8.48;;;;;;;-142.57;39.71;115900.28;4883260;29;20559;-84
2023/05/23 09:15:13;;;;;;;16.75;8.50;;;;;;;-142.57;40.07;115900.28;4901403;29;20557;-81
2023/05/23 09:18:02;;;;;;;16.48;10.18;;;;;;;-142.57;40.48;115900.28;4874882;29;20139;-82
2023/05/23 09:20:29;;;;;;;21.85;9.35;;;;;;;-142.57;40.85;115900.28;4886684;29;20055;-82
2023/05/23 09:22:58;;;;;;;13.13;7.25;;;;;;;-142.57;40.06;115900.28;4883756;29;20036;-82
2023/05/23 09:25:24;;;;;;;14.35;8.38;;;;;;;-142.57;39.41;115900.28;4884214;29;20095;-82
2023/05/23 09:27:52;;;;;;;12.35;7.10;;;;;;;-142.57;38.11;115900.28;4886218;29;20068;-82
2023/05/23 09:30:17;;;;;;;13.88;6.88;;;;;;;-142.57;37.12;115900.28;4885414;29;20028;-82
2023/05/23 09:32:58;;;;;;;12.10;7.38;;;;;;;-142.57;37.17;115900.28;4883692;29;20088;-84
2023/05/23 09:35:23;;;;;;;13.18;7.43;;;;;;;-142.57;36.74;115900.28;4883807;29;20037;-81
2023/05/23 09:37:49;;;;;;;17.17;7.78;;;;;;;-142.57;35.24;115900.28;4901616;29;20066;-86
2023/05/23 09:40:31;;;;;;;16.85;8.07;;;;;;;-142.57;36.10;115900.28;4903333;29;20173;-79
2023/05/23 09:43:04;;;;;;;13.57;7.55;;;;;;;-142.57;35.73;115900.28;4885002;29;20116;-82
2023/05/23 09:45:36;;;;;;;13.02;7.47;;;;;;;-142.57;36.15;115900.28;4882129;29;20108;-85
2023/05/23 09:48:13;;;;;;;13.77;8.45;;;;;;;-142.57;37.58;115900.28;4905544;29;20036;-87
2023/05/23 09:50:50;;;;;;;12.00;7.35;;;;;;;-142.57;38.34;115900.28;4900567;29;20041;-91
2023/05/23 09:53:17;;;;;;;15.77;7.70;;;;;;;-142.57;37.64;115900.28;4887920;29;20446;-88
2023/05/23 09:55:42;;;;;;;14.82;7.47;;;;;;;-142.57;38.23;115900.28;4906013;29;20036;-87
2023/05/23 09:58:08;;;;;;;14.93;7.95;;;;;;;-142.57;37.87;115900.28;4905179;29;20132;-86
2023/05/23 10:00:33;;;;;;;20.00;8.18;;;;;;;-142.57;35.92;115900.28;4887441;29;20124;-89
2023/05/23 10:03:16;;;;;;;18.27;8.95;;;;;;;-142.57;37.98;115900.28;4905569;29;20040;-88
2023/05/23 10:05:44;;;;;;;11.07;8.05;;;;;;;-142.57;37.02;115900.28;4904406;29;20041;-89
2023/05/23 10:08:25;;;;;;;11.23;7.18;;;;;;;-142.57;36.35;115900.28;4909329;29;20055;-90
2023/05/23 10:10:57;;;;;;;15.98;8.52;;;;;;;-142.57;36.38;115900.28;4894065;29;20052;-86
2023/05/23 10:13:27;;;;;;;10.73;7.00;;;;;;;-142.57;35.73;115900.28;4910896;29;20068;-89
2023/05/23 10:16:01;;;;;;;10.80;7.28;;;;;;;-142.57;36.96;115900.28;4900623;29;20041;-84
2023/05/23 10:18:28;;;;;;;10.80;7.25;;;;;;;-142.57;35.35;115900.28;4919540;29;20037;-86
2023/05/23 10:21:01;;;;;;;15.98;7.38;;;;;;;-142.57;34.85;115900.28;4919286;29;20036;-86
2023/05/23 10:23:31;;;;;;;10.70;6.85;;;;;;;-142.57;35.27;115900.28;4900644;29;20041;-89
2023/05/23 10:26:03;;;;;;;12.73;7.40;;;;;;;-142.57;35.59;115900.28;4901802;29;20051;-85
2023/05/23 10:28:36;;;;;;;12.40;6.43;;;;;;;-142.57;36.56;115900.28;4882029;29;20057;-88
2023/05/23 10:31:38;;;;;;;;;;;;;;;;;;;;;
2023/05/23 10:37:55;;;;;;;11.57;7.03;;;;;;;-142.57;35.60;115900.28;4740000;30;20053;-87
2023/05/23 10:40:25;;;;;;;10.85;6.00;;;;;;;-142.57;35.22;115900.28;4745821;30;20059;-93
2023/05/23 10:43:44;;;;;;;15.95;7.05;;;;;;;-142.57;34.02;115900.28;4769046;30;20056;-89
2023/05/23 10:46:14;;;;;;;21.13;5.93;;;;;;;-142.57;33.24;115900.28;4808061;29;20065;-90
2023/05/23 10:48:49;;;;;;;11.38;6.20;;;;;;;-142.57;32.99;115900.28;4897567;29;20056;-87
2023/05/23 10:51:19;;;;;;;10.13;5.95;;;;;;;-142.57;33.40;115900.28;4905141;29;20040;-88
2023/05/23 10:53:55;;;;;;;11.07;5.82;;;;;;;-142.57;32.36;115900.28;4920666;29;20043;-86
2023/05/23 10:56:23;;;;;;;12.55;6.32;;;;;;;-142.57;33.13;115900.28;4918731;29;20091;-87
2023/05/23 10:58:57;;;;;;;10.85;5.97;;;;;;;-142.57;34.65;115900.28;4896827;29;20506;-89
2023/05/23 11:01:23;;;;;;;10.98;5.57;;;;;;;-142.57;33.82;115900.28;4893168;29;20051;-87
2023/05/23 11:04:04;;;;;;;10.68;5.93;;;;;;;-142.57;33.94;115900.28;4895728;29;20025;-89
2023/05/23 11:06:31;;;;;;;10.48;5.75;;;;;;;-142.57;33.93;115900.28;4913361;29;20044;-88
2023/05/23 11:09:07;;;;;;;11.23;6.25;;;;;;;-142.57;34.39;115900.28;4890155;29;20040;-86